createdAt,value
2023-03-23T15:58:31.149Z,98481.41
2023-03-23T16:01:03.503Z,98484.71
2023-03-23T16:03:43.730Z,98487.70
2023-03-23T16:06:13.486Z,98485.72
2023-03-23T16:08:55.224Z,98484.95
2023-03-23T16:11:26.801Z,98480.83
2023-03-23T16:13:55.782Z,98481.46
2023-03-23T16:16:27.186Z,98484.96
2023-03-23T16:18:55.953Z,98486.31
2023-03-23T16:21:24.398Z,98486.80
2023-03-23T16:23:52.839Z,98488.02
2023-03-23T16:26:21.208Z,98487.23
2023-03-23T16:28:50.513Z,98488.01
2023-03-23T16:31:18.794Z,98492.06
2023-03-23T16:33:47.224Z,98494.73
2023-03-23T16:36:15.659Z,98497.04
2023-03-23T16:38:49.919Z,98494.48
2023-03-23T16:41:19.817Z,98496.17
2023-03-23T16:43:48.071Z,98498.08
2023-03-23T16:46:16.273Z,98499.73
2023-03-23T16:48:44.620Z,98497.52
2023-03-23T16:51:12.857Z,98503.52
2023-03-23T16:53:41.124Z,98506.39
2023-03-23T16:56:09.415Z,98502.88
2023-03-23T16:58:37.644Z,98503.92
2023-03-23T17:01:06.104Z,98499.41
2023-03-23T17:03:34.622Z,98497.23
2023-03-23T17:06:04.551Z,98494.40
2023-03-23T17:08:32.894Z,98491.47
2023-03-23T17:11:01.570Z,98493.62
2023-03-23T17:13:29.806Z,98498.64
2023-03-23T17:15:58.109Z,98493.77
2023-03-23T17:18:28.658Z,98492.89
2023-03-23T17:20:57.194Z,98491.56
2023-03-23T17:23:25.623Z,98487.40
2023-03-23T17:25:54.186Z,98487.02
2023-03-23T17:28:22.452Z,98493.41
2023-03-23T17:30:52.359Z,98492.55
2023-03-23T17:33:20.948Z,98492.05
2023-03-23T17:35:52.125Z,98494.48
2023-03-23T17:38:21.031Z,98501.91
2023-03-23T17:40:56.977Z,98497.33
2023-03-23T17:43:25.470Z,98501.45
2023-03-23T17:45:54.032Z,98503.73
2023-03-23T17:48:23.397Z,98508.09
2023-03-23T17:50:55.009Z,98509.20
2023-03-23T17:53:25.604Z,98507.10
2023-03-23T17:55:53.928Z,98506.71
2023-03-23T17:58:22.501Z,98513.31
2023-03-23T18:00:50.897Z,98516.20
2023-03-23T18:03:25.928Z,98516.33
2023-03-23T18:06:03.261Z,98518.39
2023-03-23T18:08:32.096Z,98520.12
2023-03-23T18:11:01.386Z,98524.02
2023-03-23T18:13:34.085Z,98530.92
2023-03-23T18:16:03.892Z,98537.66
2023-03-23T18:18:33.313Z,98541.95
2023-03-23T18:21:04.696Z,98544.77
2023-03-23T18:23:38.932Z,98547.98
2023-03-23T18:26:11.844Z,98548.81
2023-03-23T18:28:40.697Z,98553.36
2023-03-23T18:31:15.328Z,98553.41
2023-03-23T18:33:46.866Z,98551.27
2023-03-23T18:36:17.839Z,98552.23
2023-03-23T18:38:47.312Z,98552.31
2023-03-23T18:41:16.892Z,98549.11
2023-03-23T18:43:46.114Z,98543.28
2023-03-23T18:46:14.608Z,98541.12
2023-03-23T18:48:42.958Z,98542.39
2023-03-23T18:51:11.932Z,98547.60
2023-03-23T18:53:40.964Z,98544.61
2023-03-23T18:56:12.282Z,98549.35
2023-03-23T18:58:40.524Z,98553.13
2023-03-23T19:01:11.846Z,98557.06
2023-03-23T19:03:40.900Z,98557.21
2023-03-23T19:06:22.597Z,98565.16
2023-03-23T19:08:52.241Z,98566.97
2023-03-23T19:11:22.636Z,98573.70
2023-03-23T19:14:01.598Z,98576.64
2023-03-23T19:16:35.677Z,98579.02
2023-03-23T19:19:06.648Z,98581.97
2023-03-23T19:21:35.661Z,98579.96
2023-03-23T19:24:04.139Z,98580.69
2023-03-23T19:26:38.320Z,98584.70
2023-03-23T19:29:26.096Z,98581.02
2023-03-23T19:31:56.650Z,98578.25
2023-03-23T19:34:26.785Z,98571.99
2023-03-23T19:37:03.264Z,98568.34
2023-03-23T19:39:34.753Z,98565.70
2023-03-23T19:42:04.459Z,98563.14
2023-03-23T19:44:34.483Z,98566.40
2023-03-23T19:47:03.397Z,98567.05
2023-03-23T19:49:31.749Z,98565.17
2023-03-23T19:52:09.369Z,98567.60
2023-03-23T19:54:41.071Z,98569.02
2023-03-23T19:57:10.611Z,98569.92
2023-03-23T19:59:39.487Z,98572.77
2023-03-23T20:02:10.784Z,98568.95
2023-03-23T20:04:39.932Z,98572.85
2023-03-23T20:07:08.546Z,98572.47
2023-03-23T20:09:38.259Z,98570.96
2023-03-23T20:12:07.184Z,98570.84
2023-03-23T20:14:37.418Z,98566.47
2023-03-23T20:17:09.745Z,98561.97
2023-03-23T20:19:38.398Z,98560.82
2023-03-23T20:22:06.782Z,98560.71
2023-03-23T20:24:35.040Z,98559.83
2023-03-23T20:27:04.009Z,98564.44
2023-03-23T20:29:33.540Z,98568.45
2023-03-23T20:32:01.904Z,98568.62
2023-03-23T20:34:31.692Z,98571.30
2023-03-23T20:37:01.854Z,98569.41
2023-03-23T20:39:32.954Z,98570.16
2023-03-23T20:42:03.415Z,98571.64
2023-03-23T20:44:35.453Z,98573.05
2023-03-23T20:47:04.745Z,98572.69
2023-03-23T20:49:37.092Z,98571.19
2023-03-23T20:52:08.255Z,98574.33
2023-03-23T20:54:38.006Z,98581.33
2023-03-23T20:57:08.203Z,98581.05
2023-03-23T20:59:36.831Z,98582.33
2023-03-23T21:02:05.544Z,98588.45
2023-03-23T21:04:33.818Z,98592.48
2023-03-23T21:07:02.335Z,98589.38
2023-03-23T21:09:31.127Z,98592.81
2023-03-23T21:11:59.495Z,98596.27
2023-03-23T21:14:27.865Z,98600.63
2023-03-23T21:16:58.404Z,98600.56
2023-03-23T21:19:27.904Z,98602.96
2023-03-23T21:21:57.336Z,98599.98
2023-03-23T21:24:28.301Z,98600.41
2023-03-23T21:26:59.889Z,98603.70
2023-03-23T21:29:28.528Z,98607.35
2023-03-23T21:34:28.714Z,98601.15
2023-03-23T21:36:56.981Z,98598.23
2023-03-23T21:39:26.264Z,98598.90
2023-03-23T21:41:54.694Z,98599.52
2023-03-23T21:44:23.033Z,98594.79
2023-03-23T21:46:52.437Z,98590.69
2023-03-23T21:49:20.796Z,98593.88
2023-03-23T21:51:50.124Z,98597.00
2023-03-23T21:54:18.445Z,98594.35
2023-03-23T21:56:47.508Z,98591.21
2023-03-23T21:59:16.579Z,98586.67
2023-03-23T22:01:44.762Z,98584.58
2023-03-23T22:04:13.007Z,98586.45
2023-03-23T22:06:42.467Z,98584.55
2023-03-23T22:09:11.431Z,98583.23
2023-03-23T22:11:40.441Z,98582.77
2023-03-23T22:14:08.848Z,98580.70
2023-03-23T22:16:37.249Z,98578.50
2023-03-23T22:19:06.640Z,98576.27
2023-03-23T22:21:35.060Z,98578.02
2023-03-23T22:24:03.843Z,98582.02
2023-03-23T22:26:32.151Z,98586.06
2023-03-23T22:29:01.375Z,98587.33
2023-03-23T22:31:33.906Z,98590.95
2023-03-23T22:34:02.960Z,98591.84
2023-03-23T22:36:33.483Z,98593.00
2023-03-23T22:39:03.506Z,98593.95
2023-03-23T22:41:35.533Z,98594.88
2023-03-23T22:44:12.594Z,98595.66
2023-03-23T22:46:41.381Z,98598.71
2023-03-23T22:49:10.044Z,98595.98
2023-03-23T22:51:38.820Z,98597.08
2023-03-23T22:54:07.248Z,98598.25
2023-03-23T22:56:37.222Z,98600.90
2023-03-23T22:59:07.247Z,98605.16
2023-03-23T23:01:36.305Z,98606.80
2023-03-23T23:04:05.128Z,98609.38
2023-03-23T23:06:33.555Z,98608.73
2023-03-23T23:09:01.866Z,98606.90
2023-03-23T23:11:31.243Z,98606.63
2023-03-23T23:13:59.573Z,98603.67
2023-03-23T23:16:28.080Z,98600.77
2023-03-23T23:18:56.658Z,98604.77
2023-03-23T23:21:29.016Z,98614.89
2023-03-23T23:23:58.029Z,98611.21
2023-03-23T23:26:27.000Z,98614.83
2023-03-23T23:28:55.360Z,98610.05
2023-03-23T23:31:29.185Z,98608.56
2023-03-23T23:34:00.346Z,98609.23
2023-03-23T23:36:31.970Z,98602.95
2023-03-23T23:39:02.331Z,98600.84
2023-03-23T23:41:31.113Z,98604.60
2023-03-23T23:44:00.165Z,98602.77
2023-03-23T23:46:30.781Z,98597.66
2023-03-23T23:49:00.000Z,98600.17
2023-03-23T23:51:29.580Z,98596.31
2023-03-23T23:53:58.959Z,98593.24
2023-03-23T23:56:28.611Z,98592.77
2023-03-23T23:58:58.339Z,98592.17
